sensor_id;sensor_type;location;lat;lon;timestamp;temperature;humidity
5956;DHT22;3004;48.080;11.600;2022-10-19T05:25:59;12.70;99.90
5956;DHT22;3004;48.080;11.600;2022-10-19T05:28:46;12.70;99.90
5956;DHT22;3004;48.080;11.600;2022-10-19T05:35:00;12.80;99.90
5956;DHT22;3004;48.080;11.600;2022-10-19T05:37:29;12.80;99.90
5956;DHT22;3004;48.080;11.600;2022-10-19T05:40:22;12.80;99.90
5956;DHT22;3004;48.080;11.600;2022-10-19T05:43:04;12.90;99.90
5956;DHT22;3004;48.080;11.600;2022-10-19T05:45:37;12.90;99.90
5956;DHT22;3004;48.080;11.600;2022-10-19T05:49:09;12.90;99.90
5956;DHT22;3004;48.080;11.600;2022-10-19T05:51:19;12.90;99.90
5956;DHT22;3004;48.080;11.600;2022-10-19T05:54:07;12.90;99.90
5956;DHT22;3004;48.080;11.600;2022-10-19T05:56:40;12.90;99.90
5956;DHT22;3004;48.080;11.600;2022-10-19T05:59:46;12.90;99.90
5956;DHT22;3004;48.080;11.600;2022-10-19T06:06:01;13.00;99.90
5956;DHT22;3004;48.080;11.600;2022-10-19T06:08:40;13.00;99.90
5956;DHT22;3004;48.080;11.600;2022-10-19T06:11:11;13.00;99.90
5956;DHT22;3004;48.080;11.600;2022-10-19T06:13:48;13.00;99.90
5956;DHT22;3004;48.080;11.600;2022-10-19T06:26:34;13.10;99.90
5956;DHT22;3004;48.080;11.600;2022-10-19T06:29:11;13.10;99.90
5956;DHT22;3004;48.080;11.600;2022-10-19T06:31:52;13.20;99.90
5956;DHT22;3004;48.080;11.600;2022-10-19T06:35:00;13.20;99.90
5956;DHT22;3004;48.080;11.600;2022-10-19T06:37:49;13.20;99.90
5956;DHT22;3004;48.080;11.600;2022-10-19T06:40:28;13.20;99.90
5956;DHT22;3004;48.080;11.600;2022-10-19T06:43:10;13.20;99.90
5956;DHT22;3004;48.080;11.600;2022-10-19T06:45:53;13.20;99.90
5956;DHT22;3004;48.080;11.600;2022-10-19T06:48:24;13.30;99.90
5956;DHT22;3004;48.080;11.600;2022-10-19T06:51:03;13.40;99.90
5956;DHT22;3004;48.080;11.600;2022-10-19T06:53:32;13.40;99.90
5956;DHT22;3004;48.080;11.600;2022-10-19T06:56:10;13.40;99.90
5956;DHT22;3004;48.080;11.600;2022-10-19T06:58:41;13.40;99.90
5956;DHT22;3004;48.080;11.600;2022-10-19T07:01:16;13.50;99.90
5956;DHT22;3004;48.080;11.600;2022-10-19T07:03:51;13.60;99.90
5956;DHT22;3004;48.080;11.600;2022-10-19T07:06:26;13.60;99.90
5956;DHT22;3004;48.080;11.600;2022-10-19T07:09:05;13.70;99.90
5956;DHT22;3004;48.080;11.600;2022-10-19T07:11:42;13.70;99.90
5956;DHT22;3004;48.080;11.600;2022-10-19T07:14:14;13.70;99.90
5956;DHT22;3004;48.080;11.600;2022-10-19T07:16:48;13.70;99.90
5956;DHT22;3004;48.080;11.600;2022-10-19T07:19:30;13.70;99.90
5956;DHT22;3004;48.080;11.600;2022-10-19T07:22:15;13.70;99.90
5956;DHT22;3004;48.080;11.600;2022-10-19T07:24:52;13.80;99.90
5956;DHT22;3004;48.080;11.600;2022-10-19T07:27:33;13.80;99.90
5956;DHT22;3004;48.080;11.600;2022-10-19T07:30:08;13.90;99.90
5956;DHT22;3004;48.080;11.600;2022-10-19T07:35:37;13.90;99.90
5956;DHT22;3004;48.080;11.600;2022-10-19T07:38:11;13.90;99.90
5956;DHT22;3004;48.080;11.600;2022-10-19T07:40:40;14.00;99.90
5956;DHT22;3004;48.080;11.600;2022-10-19T07:43:08;14.00;99.90
5956;DHT22;3004;48.080;11.600;2022-10-19T07:45:40;14.00;99.90
5956;DHT22;3004;48.080;11.600;2022-10-19T07:48:09;14.00;99.90
5956;DHT22;3004;48.080;11.600;2022-10-19T07:50:52;14.00;99.90
5956;DHT22;3004;48.080;11.600;2022-10-19T07:53:24;14.00;99.90
5956;DHT22;3004;48.080;11.600;2022-10-19T07:55:52;14.10;99.90
5956;DHT22;3004;48.080;11.600;2022-10-19T07:58:35;14.10;99.90
5956;DHT22;3004;48.080;11.600;2022-10-19T08:01:04;14.20;99.90
5956;DHT22;3004;48.080;11.600;2022-10-19T08:03:37;14.20;99.90
5956;DHT22;3004;48.080;11.600;2022-10-19T08:06:06;14.20;99.90
5956;DHT22;3004;48.080;11.600;2022-10-19T08:08:36;14.10;99.90
5956;DHT22;3004;48.080;11.600;2022-10-19T08:11:10;14.20;99.90
5956;DHT22;3004;48.080;11.600;2022-10-19T08:17:05;14.20;99.90
5956;DHT22;3004;48.080;11.600;2022-10-19T08:19:41;14.20;99.90
5956;DHT22;3004;48.080;11.600;2022-10-19T08:22:39;14.20;99.90
5956;DHT22;3004;48.080;11.600;2022-10-19T08:25:25;14.30;99.90
5956;DHT22;3004;48.080;11.600;2022-10-19T08:28:16;14.20;99.90
5956;DHT22;3004;48.080;11.600;2022-10-19T08:30:45;14.30;99.90
5956;DHT22;3004;48.080;11.600;2022-10-19T08:33:43;14.10;99.90
5956;DHT22;3004;48.080;11.600;2022-10-19T08:39:56;14.20;99.90
5956;DHT22;3004;48.080;11.600;2022-10-19T08:42:50;14.20;99.90
5956;DHT22;3004;48.080;11.600;2022-10-19T08:45:41;14.20;99.90
5956;DHT22;3004;48.080;11.600;2022-10-19T08:48:29;14.30;99.90
5956;DHT22;3004;48.080;11.600;2022-10-19T08:51:43;14.40;99.90
5956;DHT22;3004;48.080;11.600;2022-10-19T08:54:21;14.40;99.90
5956;DHT22;3004;48.080;11.600;2022-10-19T08:56:55;14.40;99.90
5956;DHT22;3004;48.080;11.600;2022-10-19T08:59:42;14.40;99.90
5956;DHT22;3004;48.080;11.600;2022-10-19T09:02:28;14.50;99.90
5956;DHT22;3004;48.080;11.600;2022-10-19T09:05:23;14.60;99.90
5956;DHT22;3004;48.080;11.600;2022-10-19T09:08:10;14.60;99.90
5956;DHT22;3004;48.080;11.600;2022-10-19T09:10:49;14.60;99.90
5956;DHT22;3004;48.080;11.600;2022-10-19T09:13:39;14.60;99.90
5956;DHT22;3004;48.080;11.600;2022-10-19T09:16:17;14.60;99.90
5956;DHT22;3004;48.080;11.600;2022-10-19T09:18:49;14.60;99.90
5956;DHT22;3004;48.080;11.600;2022-10-19T09:21:25;14.60;99.90
5956;DHT22;3004;48.080;11.600;2022-10-19T09:24:34;14.60;99.90
5956;DHT22;3004;48.080;11.600;2022-10-19T09:27:20;14.60;99.90
5956;DHT22;3004;48.080;11.600;2022-10-19T09:30:00;14.60;99.90
5956;DHT22;3004;48.080;11.600;2022-10-19T09:32:39;14.60;99.90
5956;DHT22;3004;48.080;11.600;2022-10-19T09:35:25;14.60;99.90
5956;DHT22;3004;48.080;11.600;2022-10-19T09:41:38;14.70;99.90
5956;DHT22;3004;48.080;11.600;2022-10-19T09:44:19;14.70;99.90
5956;DHT22;3004;48.080;11.600;2022-10-19T09:46:53;14.60;99.90
5956;DHT22;3004;48.080;11.600;2022-10-19T09:49:41;14.60;99.90
5956;DHT22;3004;48.080;11.600;2022-10-19T09:52:27;14.60;99.90
5956;DHT22;3004;48.080;11.600;2022-10-19T09:55:10;14.50;99.90
5956;DHT22;3004;48.080;11.600;2022-10-19T09:57:48;14.50;99.90
5956;DHT22;3004;48.080;11.600;2022-10-19T10:00:33;14.50;99.90
5956;DHT22;3004;48.080;11.600;2022-10-19T10:03:28;14.40;99.90
5956;DHT22;3004;48.080;11.600;2022-10-19T10:06:17;14.40;99.90
5956;DHT22;3004;48.080;11.600;2022-10-19T10:08:55;14.40;99.90
5956;DHT22;3004;48.080;11.600;2022-10-19T10:11:25;14.40;99.90
5956;DHT22;3004;48.080;11.600;2022-10-19T10:14:02;14.30;99.90
5956;DHT22;3004;48.080;11.600;2022-10-19T10:16:42;14.30;99.90
5956;DHT22;3004;48.080;11.600;2022-10-19T10:19:20;14.30;99.90
5956;DHT22;3004;48.080;11.600;2022-10-19T10:22:02;14.20;99.90
5956;DHT22;3004;48.080;11.600;2022-10-19T10:24:59;14.20;99.90
5956;DHT22;3004;48.080;11.600;2022-10-19T10:27:42;14.20;99.90
5956;DHT22;3004;48.080;11.600;2022-10-19T10:30:53;14.30;99.90
5956;DHT22;3004;48.080;11.600;2022-10-19T10:33:38;14.30;99.90
5956;DHT22;3004;48.080;11.600;2022-10-19T10:36:10;14.30;99.90
5956;DHT22;3004;48.080;11.600;2022-10-19T10:39:06;14.40;99.90
5956;DHT22;3004;48.080;11.600;2022-10-19T10:41:55;14.40;99.90
5956;DHT22;3004;48.080;11.600;2022-10-19T10:44:44;14.40;99.90
5956;DHT22;3004;48.080;11.600;2022-10-19T10:47:30;14.40;99.90
5956;DHT22;3004;48.080;11.600;2022-10-19T10:50:06;14.50;99.90
5956;DHT22;3004;48.080;11.600;2022-10-19T10:52:41;14.50;99.90
5956;DHT22;3004;48.080;11.600;2022-10-19T10:55:57;14.50;99.90
5956;DHT22;3004;48.080;11.600;2022-10-19T10:58:35;14.50;99.90
5956;DHT22;3004;48.080;11.600;2022-10-19T11:01:22;14.50;99.90
5956;DHT22;3004;48.080;11.600;2022-10-19T11:04:00;14.60;99.90
5956;DHT22;3004;48.080;11.600;2022-10-19T11:06:34;14.60;99.90
5956;DHT22;3004;48.080;11.600;2022-10-19T11:12:36;14.60;99.90
5956;DHT22;3004;48.080;11.600;2022-10-19T11:26:19;14.80;99.90
5956;DHT22;3004;48.080;11.600;2022-10-19T11:29:40;14.90;99.90
5956;DHT22;3004;48.080;11.600;2022-10-19T11:39:50;15.10;99.90
5956;DHT22;3004;48.080;11.600;2022-10-19T11:46:01;15.20;99.90
5956;DHT22;3004;48.080;11.600;2022-10-19T11:52:24;15.30;99.90
5956;DHT22;3004;48.080;11.600;2022-10-19T11:55:20;15.30;
5956;DHT22;3004;48.080;11.600;2022-10-19T11:58:09;15.40;99.90
5956;DHT22;3004;48.080;11.600;2022-10-19T12:13:14;15.40;99.90
5956;DHT22;3004;48.080;11.600;2022-10-19T12:15:44;15.40;99.90
5956;DHT22;3004;48.080;11.600;2022-10-19T12:18:20;15.40;99.90
5956;DHT22;3004;48.080;11.600;2022-10-19T12:20:51;15.40;99.90
5956;DHT22;3004;48.080;11.600;2022-10-19T12:23:27;15.40;99.90
5956;DHT22;3004;48.080;11.600;2022-10-19T12:25:56;15.50;99.90
5956;DHT22;3004;48.080;11.600;2022-10-19T12:28:37;15.50;99.90
5956;DHT22;3004;48.080;11.600;2022-10-19T12:31:05;15.50;99.90
5956;DHT22;3004;48.080;11.600;2022-10-19T12:33:41;15.40;99.90
5956;DHT22;3004;48.080;11.600;2022-10-19T12:36:30;15.40;99.90
5956;DHT22;3004;48.080;11.600;2022-10-19T12:39:06;15.50;99.90
5956;DHT22;3004;48.080;11.600;2022-10-19T12:41:48;15.40;99.90
5956;DHT22;3004;48.080;11.600;2022-10-19T12:47:18;15.40;99.90
5956;DHT22;3004;48.080;11.600;2022-10-19T12:49:47;15.30;99.90
5956;DHT22;3004;48.080;11.600;2022-10-19T12:52:34;15.30;99.90
5956;DHT22;3004;48.080;11.600;2022-10-19T12:55:23;15.40;99.90
5956;DHT22;3004;48.080;11.600;2022-10-19T12:58:03;15.40;99.90
5956;DHT22;3004;48.080;11.600;2022-10-19T13:00:38;15.40;99.90
5956;DHT22;3004;48.080;11.600;2022-10-19T13:03:14;15.50;99.90
5956;DHT22;3004;48.080;11.600;2022-10-19T13:05:56;15.40;99.90
5956;DHT22;3004;48.080;11.600;2022-10-19T13:08:29;15.50;99.90
5956;DHT22;3004;48.080;11.600;2022-10-19T13:11:13;15.50;99.90
5956;DHT22;3004;48.080;11.600;2022-10-19T13:13:59;15.60;99.90
5956;DHT22;3004;48.080;11.600;2022-10-19T13:17:06;15.70;99.90
5956;DHT22;3004;48.080;11.600;2022-10-19T13:19:39;15.80;99.90
5956;DHT22;3004;48.080;11.600;2022-10-19T13:22:25;15.80;99.90
5956;DHT22;3004;48.080;11.600;2022-10-19T13:25:22;16.00;99.90
5956;DHT22;3004;48.080;11.600;2022-10-19T13:27:56;15.90;99.90
5956;DHT22;3004;48.080;11.600;2022-10-19T13:31:01;15.90;99.90
5956;DHT22;3004;48.080;11.600;2022-10-19T13:33:55;15.90;99.90
5956;DHT22;3004;48.080;11.600;2022-10-19T13:36:28;15.90;99.90
5956;DHT22;3004;48.080;11.600;2022-10-19T13:39:12;15.80;99.90
5956;DHT22;3004;48.080;11.600;2022-10-19T13:42:00;15.90;99.90
5956;DHT22;3004;48.080;11.600;2022-10-19T13:44:43;16.00;99.90
5956;DHT22;3004;48.080;11.600;2022-10-19T13:47:22;16.20;99.90
5956;DHT22;3004;48.080;11.600;2022-10-19T13:50:25;16.10;99.90
5956;DHT22;3004;48.080;11.600;2022-10-19T13:53:17;16.00;99.90
5956;DHT22;3004;48.080;11.600;2022-10-19T13:56:23;15.90;99.90
5956;DHT22;3004;48.080;11.600;2022-10-19T14:02:19;15.90;99.90
5956;DHT22;3004;48.080;11.600;2022-10-19T14:05:15;15.90;99.90
5956;DHT22;3004;48.080;11.600;2022-10-19T14:08:06;16.00;99.90
5956;DHT22;3004;48.080;11.600;2022-10-19T14:10:40;16.10;99.90
5956;DHT22;3004;48.080;11.600;2022-10-19T14:13:12;16.20;99.90
5956;DHT22;3004;48.080;11.600;2022-10-19T14:15:50;16.10;99.90
5956;DHT22;3004;48.080;11.600;2022-10-19T14:18:22;16.00;99.90
5956;DHT22;3004;48.080;11.600;2022-10-19T14:20:56;16.00;99.90
5956;DHT22;3004;48.080;11.600;2022-10-19T14:23:35;15.90;99.90
5956;DHT22;3004;48.080;11.600;2022-10-19T14:26:12;15.90;99.90
5956;DHT22;3004;48.080;11.600;2022-10-19T14:28:40;16.00;99.90
5956;DHT22;3004;48.080;11.600;2022-10-19T14:31:10;16.10;99.90
5956;DHT22;3004;48.080;11.600;2022-10-19T14:33:55;16.10;99.90
5956;DHT22;3004;48.080;11.600;2022-10-19T14:36:29;16.10;99.90
5956;DHT22;3004;48.080;11.600;2022-10-19T14:39:00;16.10;99.90
5956;DHT22;3004;48.080;11.600;2022-10-19T14:41:30;16.10;99.90
5956;DHT22;3004;48.080;11.600;2022-10-19T14:44:03;16.00;99.90
5956;DHT22;3004;48.080;11.600;2022-10-19T14:46:47;16.00;99.90
5956;DHT22;3004;48.080;11.600;2022-10-19T14:49:22;15.90;99.90
5956;DHT22;3004;48.080;11.600;2022-10-19T14:51:51;15.90;99.90
5956;DHT22;3004;48.080;11.600;2022-10-19T14:54:36;15.80;99.90
5956;DHT22;3004;48.080;11.600;2022-10-19T14:57:11;15.80;99.90
5956;DHT22;3004;48.080;11.600;2022-10-19T14:59:51;15.80;99.90
5956;DHT22;3004;48.080;11.600;2022-10-19T15:02:28;15.80;99.90
5956;DHT22;3004;48.080;11.600;2022-10-19T15:04:58;15.80;99.90
5956;DHT22;3004;48.080;11.600;2022-10-19T15:07:33;15.80;99.90
5956;DHT22;3004;48.080;11.600;2022-10-19T15:10:18;15.70;99.90
5956;DHT22;3004;48.080;11.600;2022-10-19T15:12:49;15.80;99.90
5956;DHT22;3004;48.080;11.600;2022-10-19T15:15:19;15.70;99.90
5956;DHT22;3004;48.080;11.600;2022-10-19T15:18:04;15.70;99.90
5956;DHT22;3004;48.080;11.600;2022-10-19T15:20:36;15.70;99.90
5956;DHT22;3004;48.080;11.600;2022-10-19T15:23:29;15.60;99.90
5956;DHT22;3004;48.080;11.600;2022-10-19T15:26:10;15.60;99.90
5956;DHT22;3004;48.080;11.600;2022-10-19T15:28:39;15.50;99.90
5956;DHT22;3004;48.080;11.600;2022-10-19T15:31:15;15.50;99.90
5956;DHT22;3004;48.080;11.600;2022-10-19T15:33:56;15.50;99.90
5956;DHT22;3004;48.080;11.600;2022-10-19T15:36:24;15.40;99.90
5956;DHT22;3004;48.080;11.600;2022-10-19T15:39:00;15.40;99.90
5956;DHT22;3004;48.080;11.600;2022-10-19T15:41:30;15.30;99.90
5956;DHT22;3004;48.080;11.600;2022-10-19T15:43:58;15.30;99.90
5956;DHT22;3004;48.080;11.600;2022-10-19T15:47:12;15.20;99.90
5956;DHT22;3004;48.080;11.600;2022-10-19T15:49:55;15.10;99.90
5956;DHT22;3004;48.080;11.600;2022-10-19T15:52:24;15.10;99.90
5956;DHT22;3004;48.080;11.600;2022-10-19T15:54:52;15.00;99.90
5956;DHT22;3004;48.080;11.600;2022-10-19T15:57:38;15.00;99.90
5956;DHT22;3004;48.080;11.600;2022-10-19T16:00:12;14.90;99.90
5956;DHT22;3004;48.080;11.600;2022-10-19T16:02:40;14.90;99.90
5956;DHT22;3004;48.080;11.600;2022-10-19T16:05:07;14.90;99.90
5956;DHT22;3004;48.080;11.600;2022-10-19T16:07:37;14.80;99.90
5956;DHT22;3004;48.080;11.600;2022-10-19T16:10:07;14.80;99.90
5956;DHT22;3004;48.080;11.600;2022-10-19T16:12:40;14.70;99.90
5956;DHT22;3004;48.080;11.600;2022-10-19T16:15:10;14.60;99.90
5956;DHT22;3004;48.080;11.600;2022-10-19T16:17:37;14.50;99.90
5956;DHT22;3004;48.080;11.600;2022-10-19T16:20:05;14.50;99.90
5956;DHT22;3004;48.080;11.600;2022-10-19T16:22:32;14.50;99.90
5956;DHT22;3004;48.080;11.600;2022-10-19T16:24:59;14.40;99.90
5956;DHT22;3004;48.080;11.600;2022-10-19T16:27:29;14.30;99.90
5956;DHT22;3004;48.080;11.600;2022-10-19T16:29:58;14.20;99.90
5956;DHT22;3004;48.080;11.600;2022-10-19T16:32:25;14.20;99.90
5956;DHT22;3004;48.080;11.600;2022-10-19T16:34:52;14.10;99.90
5956;DHT22;3004;48.080;11.600;2022-10-19T16:37:19;14.00;99.90
5956;DHT22;3004;48.080;11.600;2022-10-19T16:39:46;14.00;99.90
5956;DHT22;3004;48.080;11.600;2022-10-19T16:42:13;14.00;99.90
5956;DHT22;3004;48.080;11.600;2022-10-19T16:44:40;13.90;99.90
5956;DHT22;3004;48.080;11.600;2022-10-19T16:47:10;13.90;99.90
5956;DHT22;3004;48.080;11.600;2022-10-19T16:49:38;13.90;99.90
5956;DHT22;3004;48.080;11.600;2022-10-19T16:52:05;13.80;99.90
5956;DHT22;3004;48.080;11.600;2022-10-19T16:54:32;13.80;99.90
5956;DHT22;3004;48.080;11.600;2022-10-19T16:56:59;13.70;99.90
5956;DHT22;3004;48.080;11.600;2022-10-19T16:59:26;13.70;99.90
5956;DHT22;3004;48.080;11.600;2022-10-19T17:01:53;13.70;99.90
5956;DHT22;3004;48.080;11.600;2022-10-19T17:04:21;13.70;99.90
5956;DHT22;3004;48.080;11.600;2022-10-19T17:06:53;13.80;99.90
5956;DHT22;3004;48.080;11.600;2022-10-19T17:09:21;13.80;99.90
5956;DHT22;3004;48.080;11.600;2022-10-19T17:11:49;13.80;99.90
5956;DHT22;3004;48.080;11.600;2022-10-19T17:14:17;13.80;99.90
5956;DHT22;3004;48.080;11.600;2022-10-19T17:16:45;13.80;99.90
5956;DHT22;3004;48.080;11.600;2022-10-19T17:19:12;13.80;99.90
5956;DHT22;3004;48.080;11.600;2022-10-19T17:21:40;13.80;99.90
5956;DHT22;3004;48.080;11.600;2022-10-19T17:24:12;13.80;99.90
5956;DHT22;3004;48.080;11.600;2022-10-19T17:26:40;13.80;99.90
5956;DHT22;3004;48.080;11.600;2022-10-19T17:29:10;13.80;99.90
5956;DHT22;3004;48.080;11.600;2022-10-19T17:31:38;13.80;99.90
5956;DHT22;3004;48.080;11.600;2022-10-19T17:34:06;13.80;99.90
5956;DHT22;3004;48.080;11.600;2022-10-19T17:36:36;13.70;99.90
5956;DHT22;3004;48.080;11.600;2022-10-19T17:39:11;13.70;99.90
5956;DHT22;3004;48.080;11.600;2022-10-19T17:41:39;13.70;99.90
5956;DHT22;3004;48.080;11.600;2022-10-19T17:44:06;13.70;99.90
5956;DHT22;3004;48.080;11.600;2022-10-19T17:46:34;13.70;99.90
5956;DHT22;3004;48.080;11.600;2022-10-19T17:49:01;13.70;99.90
5956;DHT22;3004;48.080;11.600;2022-10-19T17:51:30;13.70;99.90
5956;DHT22;3004;48.080;11.600;2022-10-19T17:54:00;13.70;99.90
5956;DHT22;3004;48.080;11.600;2022-10-19T17:56:29;13.60;99.90
5956;DHT22;3004;48.080;11.600;2022-10-19T17:58:57;13.60;99.90
5956;DHT22;3004;48.080;11.600;2022-10-19T18:01:27;13.50;99.90
5956;DHT22;3004;48.080;11.600;2022-10-19T18:03:54;13.50;99.90
5956;DHT22;3004;48.080;11.600;2022-10-19T18:06:23;13.50;99.90
5956;DHT22;3004;48.080;11.600;2022-10-19T18:08:52;13.40;99.90
5956;DHT22;3004;48.080;11.600;2022-10-19T18:11:21;13.40;99.90
5956;DHT22;3004;48.080;11.600;2022-10-19T18:13:51;13.40;99.90
5956;DHT22;3004;48.080;11.600;2022-10-19T18:16:21;13.30;99.90
5956;DHT22;3004;48.080;11.600;2022-10-19T18:18:50;13.30;99.90
5956;DHT22;3004;48.080;11.600;2022-10-19T18:21:57;13.20;99.90
5956;DHT22;3004;48.080;11.600;2022-10-19T18:24:30;13.20;99.90
5956;DHT22;3004;48.080;11.600;2022-10-19T18:26:59;13.10;99.90
5956;DHT22;3004;48.080;11.600;2022-10-19T18:29:27;13.10;99.90
5956;DHT22;3004;48.080;11.600;2022-10-19T18:31:54;13.00;99.90
5956;DHT22;3004;48.080;11.600;2022-10-19T18:34:23;13.00;99.90
5956;DHT22;3004;48.080;11.600;2022-10-19T18:36:51;12.90;99.90
5956;DHT22;3004;48.080;11.600;2022-10-19T18:39:18;12.90;99.90
5956;DHT22;3004;48.080;11.600;2022-10-19T18:41:46;12.80;99.90
5956;DHT22;3004;48.080;11.600;2022-10-19T18:44:16;12.80;99.90
5956;DHT22;3004;48.080;11.600;2022-10-19T18:46:44;12.70;99.90
5956;DHT22;3004;48.080;11.600;2022-10-19T18:49:12;12.50;99.90
5956;DHT22;3004;48.080;11.600;2022-10-19T18:51:39;12.40;99.90
5956;DHT22;3004;48.080;11.600;2022-10-19T18:54:09;12.50;99.90
5956;DHT22;3004;48.080;11.600;2022-10-19T18:56:37;12.40;99.90
5956;DHT22;3004;48.080;11.600;2022-10-19T18:59:04;12.40;99.90
5956;DHT22;3004;48.080;11.600;2022-10-19T19:01:31;12.40;99.90
5956;DHT22;3004;48.080;11.600;2022-10-19T19:04:05;12.30;99.90
5956;DHT22;3004;48.080;11.600;2022-10-19T19:06:33;12.10;99.90
5956;DHT22;3004;48.080;11.600;2022-10-19T19:09:03;12.00;99.90
5956;DHT22;3004;48.080;11.600;2022-10-19T19:11:33;11.80;99.90
5956;DHT22;3004;48.080;11.600;2022-10-19T19:14:04;11.70;99.90
5956;DHT22;3004;48.080;11.600;2022-10-19T19:16:45;11.80;99.90
5956;DHT22;3004;48.080;11.600;2022-10-19T19:19:16;11.80;99.90
5956;DHT22;3004;48.080;11.600;2022-10-19T19:21:44;11.70;99.90
5956;DHT22;3004;48.080;11.600;2022-10-19T19:24:14;11.60;99.90
5956;DHT22;3004;48.080;11.600;2022-10-19T19:26:44;11.60;99.90
5956;DHT22;3004;48.080;11.600;2022-10-19T19:29:13;11.50;99.90
5956;DHT22;3004;48.080;11.600;2022-10-19T19:31:40;11.60;99.90
5956;DHT22;3004;48.080;11.600;2022-10-19T19:34:07;11.60;99.90
5956;DHT22;3004;48.080;11.600;2022-10-19T19:36:37;11.70;99.90
5956;DHT22;3004;48.080;11.600;2022-10-19T19:39:05;11.60;99.90
5956;DHT22;3004;48.080;11.600;2022-10-19T19:41:34;11.60;99.90
5956;DHT22;3004;48.080;11.600;2022-10-19T19:44:01;11.60;99.90
5956;DHT22;3004;48.080;11.600;2022-10-19T19:46:28;11.40;99.90
5956;DHT22;3004;48.080;11.600;2022-10-19T19:49:01;11.20;99.90
5956;DHT22;3004;48.080;11.600;2022-10-19T19:51:30;11.00;99.90
5956;DHT22;3004;48.080;11.600;2022-10-19T19:54:00;10.90;99.90
5956;DHT22;3004;48.080;11.600;2022-10-19T19:56:27;10.90;99.90
5956;DHT22;3004;48.080;11.600;2022-10-19T19:58:55;10.90;99.90
5956;DHT22;3004;48.080;11.600;2022-10-19T20:01:26;10.80;99.90
5956;DHT22;3004;48.080;11.600;2022-10-19T20:03:58;10.80;99.90
5956;DHT22;3004;48.080;11.600;2022-10-19T20:06:27;10.80;99.90
5956;DHT22;3004;48.080;11.600;2022-10-19T20:08:55;11.00;99.90
5956;DHT22;3004;48.080;11.600;2022-10-19T20:11:27;11.10;99.90
5956;DHT22;3004;48.080;11.600;2022-10-19T20:13:54;11.20;99.90
5956;DHT22;3004;48.080;11.600;2022-10-19T20:16:23;11.20;99.90
5956;DHT22;3004;48.080;11.600;2022-10-19T20:18:55;11.30;99.90
5956;DHT22;3004;48.080;11.600;2022-10-19T20:21:24;11.30;99.90
5956;DHT22;3004;48.080;11.600;2022-10-19T20:23:52;11.20;99.90
5956;DHT22;3004;48.080;11.600;2022-10-19T20:26:21;11.30;99.90
5956;DHT22;3004;48.080;11.600;2022-10-19T20:28:50;11.30;99.90
5956;DHT22;3004;48.080;11.600;2022-10-19T20:31:19;11.10;99.90
5956;DHT22;3004;48.080;11.600;2022-10-19T20:33:46;11.10;99.90
5956;DHT22;3004;48.080;11.600;2022-10-19T20:36:15;11.00;99.90
5956;DHT22;3004;48.080;11.600;2022-10-19T20:38:45;10.80;99.90
5956;DHT22;3004;48.080;11.600;2022-10-19T20:41:13;10.60;99.90
5956;DHT22;3004;48.080;11.600;2022-10-19T20:43:40;10.50;99.90
5956;DHT22;3004;48.080;11.600;2022-10-19T20:46:13;10.40;99.90
5956;DHT22;3004;48.080;11.600;2022-10-19T20:48:41;10.40;99.90
5956;DHT22;3004;48.080;11.600;2022-10-19T20:51:12;10.20;99.90
5956;DHT22;3004;48.080;11.600;2022-10-19T20:53:40;10.20;99.90
5956;DHT22;3004;48.080;11.600;2022-10-19T20:56:09;10.20;99.90
5956;DHT22;3004;48.080;11.600;2022-10-19T20:58:37;10.20;99.90
5956;DHT22;3004;48.080;11.600;2022-10-19T21:01:07;10.10;99.90
5956;DHT22;3004;48.080;11.600;2022-10-19T21:03:37;10.10;99.90
5956;DHT22;3004;48.080;11.600;2022-10-19T21:06:06;10.00;99.90
5956;DHT22;3004;48.080;11.600;2022-10-19T21:08:34;9.90;99.90
5956;DHT22;3004;48.080;11.600;2022-10-19T21:11:12;9.90;99.90
5956;DHT22;3004;48.080;11.600;2022-10-19T21:13:40;9.80;99.90
5956;DHT22;3004;48.080;11.600;2022-10-19T21:16:08;9.70;99.90
5956;DHT22;3004;48.080;11.600;2022-10-19T21:18:38;9.80;99.90
5956;DHT22;3004;48.080;11.600;2022-10-19T21:21:16;9.70;99.90
5956;DHT22;3004;48.080;11.600;2022-10-19T21:23:45;9.70;99.90
5956;DHT22;3004;48.080;11.600;2022-10-19T21:26:13;9.60;99.90
5956;DHT22;3004;48.080;11.600;2022-10-19T21:28:45;9.50;99.90
5956;DHT22;3004;48.080;11.600;2022-10-19T21:31:16;9.50;99.90
5956;DHT22;3004;48.080;11.600;2022-10-19T21:33:45;9.50;99.90
5956;DHT22;3004;48.080;11.600;2022-10-19T21:36:13;9.60;99.90
5956;DHT22;3004;48.080;11.600;2022-10-19T21:38:40;9.50;99.90
5956;DHT22;3004;48.080;11.600;2022-10-19T21:41:11;9.50;99.90
5956;DHT22;3004;48.080;11.600;2022-10-19T21:43:43;9.50;99.90
5956;DHT22;3004;48.080;11.600;2022-10-19T21:46:12;9.50;99.90
5956;DHT22;3004;48.080;11.600;2022-10-19T21:48:40;9.40;99.90
5956;DHT22;3004;48.080;11.600;2022-10-19T21:51:20;9.40;99.90
5956;DHT22;3004;48.080;11.600;2022-10-19T21:53:48;9.40;99.90
5956;DHT22;3004;48.080;11.600;2022-10-19T21:56:16;9.40;99.90
5956;DHT22;3004;48.080;11.600;2022-10-19T21:58:45;9.20;99.90
5956;DHT22;3004;48.080;11.600;2022-10-19T22:01:12;9.20;99.90
5956;DHT22;3004;48.080;11.600;2022-10-19T22:03:40;9.20;99.90
5956;DHT22;3004;48.080;11.600;2022-10-19T22:06:08;9.10;99.90
5956;DHT22;3004;48.080;11.600;2022-10-19T22:08:39;9.10;99.90
5956;DHT22;3004;48.080;11.600;2022-10-19T22:11:07;9.10;99.90
5956;DHT22;3004;48.080;11.600;2022-10-19T22:13:35;9.10;99.90
5956;DHT22;3004;48.080;11.600;2022-10-19T22:16:03;9.10;99.90
5956;DHT22;3004;48.080;11.600;2022-10-19T22:18:30;9.00;99.90
5956;DHT22;3004;48.080;11.600;2022-10-19T22:21:01;9.00;99.90
5956;DHT22;3004;48.080;11.600;2022-10-19T22:23:28;9.00;99.90
5956;DHT22;3004;48.080;11.600;2022-10-19T22:25:57;9.00;99.90
5956;DHT22;3004;48.080;11.600;2022-10-19T22:28:29;9.00;99.90
5956;DHT22;3004;48.080;11.600;2022-10-19T22:30:57;9.00;99.90
5956;DHT22;3004;48.080;11.600;2022-10-19T22:33:25;8.90;99.90
5956;DHT22;3004;48.080;11.600;2022-10-19T22:35:53;8.90;99.90
5956;DHT22;3004;48.080;11.600;2022-10-19T22:38:21;8.90;99.90
5956;DHT22;3004;48.080;11.600;2022-10-19T22:40:48;8.80;99.90
5956;DHT22;3004;48.080;11.600;2022-10-19T22:43:20;8.90;99.90
5956;DHT22;3004;48.080;11.600;2022-10-19T22:45:47;9.00;99.90
5956;DHT22;3004;48.080;11.600;2022-10-19T22:48:15;9.10;99.90
5956;DHT22;3004;48.080;11.600;2022-10-19T22:50:43;8.90;99.90
5956;DHT22;3004;48.080;11.600;2022-10-19T22:53:13;8.80;99.90
5956;DHT22;3004;48.080;11.600;2022-10-19T22:55:40;8.70;99.90
5956;DHT22;3004;48.080;11.600;2022-10-19T22:58:08;8.70;99.90
5956;DHT22;3004;48.080;11.600;2022-10-19T23:00:39;8.70;99.90
5956;DHT22;3004;48.080;11.600;2022-10-19T23:03:06;8.70;99.90
5956;DHT22;3004;48.080;11.600;2022-10-19T23:05:36;8.70;99.90
5956;DHT22;3004;48.080;11.600;2022-10-19T23:08:03;8.70;99.90
5956;DHT22;3004;48.080;11.600;2022-10-19T23:10:30;8.70;99.90
5956;DHT22;3004;48.080;11.600;2022-10-19T23:12:57;8.70;99.90
5956;DHT22;3004;48.080;11.600;2022-10-19T23:15:28;8.80;99.90
5956;DHT22;3004;48.080;11.600;2022-10-19T23:18:10;8.90;99.90
5956;DHT22;3004;48.080;11.600;2022-10-19T23:20:37;8.90;99.90
5956;DHT22;3004;48.080;11.600;2022-10-19T23:23:04;8.90;99.90